x

Ilm3 - 27 Miles Se Of Wrightsville Beach, Nc (41037) Weather Station

4:08pm - Wed 10th Feb 2016 All times are EST. -5 hours from GMT.

  • Wind
    25mph, 34mph gusts
  • Sea Temp 60°f
  • Air Temp 43°f
  • Sea Pressure 1010.8mb
  • Ilm3 - 27 Miles Se Of Wrightsville Beach, Nc
  • Ilm3 - 27 Miles Se Of Wrightsville Beach, Nc

More Historic Weather Station data

Upgrade to MSW Pro to gain access to the past 30 days of data for over 8000 Wavebouys and Weather Stations around the globe.

Join Pro

Comparision Forecast

View Surf forecast
   
Wed 02/10 4:08pm 25 34 mph 1010.8mb 60f 43f
3:08pm 18 27 mph 1010.6mb 60f 42f
2:08pm 16 25 mph 1010.7mb 60f 41f
1:08pm 13 22 mph 1011.4mb 60f 41f
12:08pm 13 29 mph 1012.5mb 60f 39f
11:08am 16 22 mph 1013.2mb 60f 40f
10:08am 16 27 mph 1013.2mb 61f 40f
9:08am 18 29 mph 1013mb - 40f
7:08am 20 29 mph 1011.9mb 60f 40f
6:08am 22 31 mph 1011.1mb 60f 39f
5:08am 20 29 mph 1010.6mb 60f 40f
4:08am 20 31 mph 1010mb 60f 40f
3:08am 22 31 mph 1009.3mb 60f 40f
2:08am 25 31 mph 1009.3mb 59f 42f
1:08am 25 34 mph 1009.4mb 59f 43f
12:08am 27 34 mph 1009.2mb 60f 44f
Tue 02/09 11:08pm 25 34 mph 1009.1mb 60f 44f
10:08pm 27 36 mph 1008.9mb 60f 45f
9:08pm 27 36 mph 1008.8mb 60f 45f
8:08pm 29 43 mph 1008.1mb 60f 45f
7:08pm 29 38 mph 1007.4mb 61f 46f
6:08pm 27 38 mph 1005.7mb - 47f
4:08pm 27 36 mph 1004.7mb 60f 47f
3:08pm 27 36 mph 1004.2mb 60f 48f
2:08pm 27 38 mph 1004.3mb 60f 47f
1:08pm 25 38 mph 1004.5mb - 47f
11:08am 27 36 mph 1005.3mb 60f 44f
10:08am 25 36 mph 1005.6mb - 38f
8:08am 25 34 mph 1005.2mb 61f 37f
7:08am 22 27 mph 1003.5mb 61f 39f
6:08am 20 27 mph 1003.2mb 61f 41f
5:08am 20 29 mph 1002.3mb 61f 46f
4:08am 22 31 mph 1001.8mb 61f 49f
3:08am 22 29 mph 1001.8mb 61f 51f
2:08am 20 29 mph 1002.3mb 60f 51f
1:08am 20 38 mph 1001.9mb - 51f
Mon 02/08 11:08pm 16 22 mph 1003.2mb 60f 42f
10:08pm 18 25 mph 1004.3mb 60f 46f
9:08pm 27 36 mph 1005mb 60f 52f
8:08pm 27 38 mph 1004.6mb 60f 57f
7:08pm 25 36 mph 1004.9mb 61f 57f
6:08pm 22 31 mph 1005mb 61f 56f
5:08pm 25 34 mph 1005.2mb 61f 56f
4:08pm 22 31 mph 1006.1mb 61f 56f
3:08pm 18 25 mph 1008mb 60f 55f
2:08pm 13 22 mph 1007.9mb 60f 54f
1:08pm 7 13 mph 1008.4mb 60f 53f
12:08pm 4 9 mph 1010.4mb 60f 52f
11:08am 7 11 mph 1009.8mb 59f 51f
10:08am 11 18 mph 1009.7mb - 50f
8:08am 18 25 mph 1010mb 60f 49f
7:08am 18 27 mph 1009.1mb 60f 46f
6:08am 22 29 mph 1008.6mb 60f 46f
5:08am 22 31 mph 1007.6mb 60f 46f
4:08am 27 38 mph 1006.7mb 60f 47f
3:08am 27 38 mph 1005.1mb - 47f
1:08am 31 40 mph 1004mb 59f 45f
12:08am 31 45 mph 1003mb 59f 43f
Sun 02/07 11:08pm 34 51 mph 1002.1mb 60f 43f
10:08pm 38 54 mph 1001.1mb 60f 42f
9:08pm 43 56 mph 999.3mb 61f 43f
8:08pm 45 60 mph 999.4mb 62f 42f
7:08pm 47 69 mph 997.9mb - 42f
5:08pm 47 69 mph 997.3mb - 39f
3:08pm 45 63 mph 997.6mb 64f 44f
2:08pm 45 60 mph 999.3mb 65f 44f
1:08pm 45 134 mph 1001mb - 46f
11:08am 45 60 mph 1004.2mb - 46f
9:08am 38 56 mph 1009.9mb - 47f
7:08am 38 54 mph 1011.6mb 67f 47f
5:08am 36 49 mph 1013.7mb 67f 46f
4:08am 38 51 mph 1013.6mb 68f 46f
3:08am 36 49 mph 1015.5mb 68f 47f
2:08am 36 51 mph 1017.3mb - 47f
Sat 02/06 11:08pm 27 34 mph 1019.2mb 68f 52f